Haines, AK

1:35 PM AKDT on July 30, 2016 (GMT -0800)
Letnikof Cove | | Change Station

Elev 230 ft 59.17 °N, 135.39 °W | Updated 19 seconds ago

Overcast
Overcast
64.2 °F
Feels Like 64.2 °F
N
0.2
Wind Variable Wind from NE
Gusts 2.9 mph

Today
High -- | Low -- °F
--% Chance of Precip.
Yesterday
High -- | Low -- °F
Precip. -- in
Pressure 30.12 in
Visibility 10.0 miles
Clouds Overcast 4800 ft
Dew Point 53 °F
Humidity 68%
Rainfall 0.00 in
Snow Depth Not available.
4:44 AM 9:30 PM
Waning Crescent, 11% visible
METAR PAHN 302054Z AUTO 12007KT 10SM OVC048 15/11 A3010 RMK AO2 SLP197 T01500106 56004 TSNO
Pressure 30.12 in
Visibility 10.0 miles
Clouds Overcast 4800 ft
Dew Point 53 °F
Humidity 68%
Rainfall 0.00 in
Snow Depth Not available.
4:44 AM 9:30 PM
Waning Crescent, 11% visible
METAR PAHN 302054Z AUTO 12007KT 10SM OVC048 15/11 A3010 RMK AO2 SLP197 T01500106 56004 TSNO

10-Day Weather Forecast

Almanac

Astronomy

Jul. 30, 2016 Rise Set
Actual Time
Civil Twilight
Nautical Twilight
Astronomical Twilight
Moon
Length of Visible Light
Length of Day
Tomorrow will be .
, % of the Moon is Illuminated

Today's Extremes

State Highs State Lows

Community

WunderPhotos

Upload Photos

1,928,654 photos uploaded!

WunderBlog® & News

Nearby

Air Quality

  Air Quality AQ Index Pollutant
Not available.

Snow Depth

Station Depth Elevation

Earthquake Activity

City Distance Mag. Time & Date
Minimum magnitude displayed is 2.5.

Coastal Water Temperatures

Place Temperature

Stations

Nearby Weather Stations

Station Location Temp. Windchill Dew Point Humidity Wind Precip. Elev Updated Type
                   

Watches & Warnings

There are currently no watches in effect.